CheckWX is a tool to help pilots better visualize weather data.  It is not intended as a substitute for an official pre-flight weather briefing.

02:11:08 UTC

KOZR METAR
Cairns AAF (Fort Rucker) Airport
Fort Rucker/Ozark, Alabama, USA
Current

5 mins ago

KOZR 180206Z AUTO 20008KT 10SM OVC007 21/21 A2989 RMK AO2 SLP122
Observed
Feb-18 @ 02:06 UTC
Wind
  • 200° at 8 KTS
Visibility
10 SM
Flight Rules
IFR
Cloud Levels
  • Overcast at 700' AGL
Temperature
21°C / 70°F
Dewpoint
21°C / 70°F
Humidity
100%
Altimeter
29.89" Hg
Pressure
1012.2 hPa
Previous

15 mins ago

KOZR 180156Z AUTO 20008KT 10SM BKN008 BKN013 OVC060 21/20 A2989 RMK AO2 SLP122 T02130204
Observed
Feb-18 @ 01:56 UTC
Wind
  • 200° at 8 KTS
Visibility
10 SM
Flight Rules
IFR
Cloud Levels
  • Broken at 800' AGL
  • Broken at 1,300' AGL
  • Overcast at 6,000' AGL
Temperature
21°C / 70°F
Dewpoint
20°C / 68°F
Humidity
94%
Altimeter
29.89" Hg
Pressure
1012.2 hPa
Previous

30 mins ago

KOZR 180141Z AUTO 19009KT 10SM SCT009 SCT014 OVC060 22/21 A2989 RMK AO2 SLP122
Observed
Feb-18 @ 01:41 UTC
Wind
  • 190° at 9 KTS
Visibility
10 SM
Flight Rules
VFR
Cloud Levels
  • Scattered at 900' AGL
  • Scattered at 1,400' AGL
  • Overcast at 6,000' AGL
Temperature
22°C / 72°F
Dewpoint
21°C / 70°F
Humidity
94%
Altimeter
29.89" Hg
Pressure
1012.2 hPa